Forside
METAR-TAF:

METAR-TAF

Lufthavne :

Tongatapu, Tonga

Breddekreds: 21-14S, længdekreds: 175-09W, højde: 38 m

Aktuelle vejr

Denne rapport blev lavet for 22 minutter siden, kl. 04:00 UTC
Vind 7 kt fra sydsydvest
Temperatur 26°C
Fugtighed 84%
Tryk 1005 hPa
Sigt 10 km eller mere
Spredte skyer i en højde af 1700 ft

METAR: NFTF 160400Z 20007KT 9999 SCT017 26/23 Q1005

Tid: 18:22 (04:22 UTC)

Vejrudsigter

Denne rapport blev lavet for 4 timer og 55 minutter siden, kl. 23:27 UTC
Foreløbig gælder fra 16 på 00 UTC til 16 på 24 UTC
Vind 12 kt fra sydvest
Sigt 10 km eller mere
Spredte skyer i en højde af 1600 ft
Brudte skyer i en højde af 4000 ft
let regnbyger
Sandsynlighed 30% :
Midlertidig
fra 16 på 00 UTC til 16 på 06 UTC
Sigt: 5000 m
Brudte skyer i en højde af 1500 ft
regnbyger

TAF: NFTF 152327Z 1600/1624 22012KT 9999 -SHRA SCT016 BKN040 PROB30 TEMPO 1600/1606 5000 SHRA BKN015

Vejrobservationer og prognoser fra mere end 4000 lufthavne (METAR og TAF).

De gule og røde prikker repræsenterer de meteorologiske stationer.

Flyt musen over at se navnet på stationen.

Så klik over at se vejr observationer og prognoser.

At skifte det kort: Klik på de grønne knapper med et sort kors for at zoome ind; på den grønne knap med en bindestreg for at zoome ud; eller på de grønne pile for tilstødende kort.


METAR-TAF: